sensor_id;sensor_type;location;lat;lon;timestamp;temperature;humidity
2226;DHT22;1119;48.288;8.726;2023-04-30T00:00:00;10.50;99.90
2226;DHT22;1119;48.288;8.726;2023-04-30T00:02:48;10.50;99.90
2226;DHT22;1119;48.288;8.726;2023-04-30T00:05:35;10.60;99.90
2226;DHT22;1119;48.288;8.726;2023-04-30T00:08:23;10.60;99.90
2226;DHT22;1119;48.288;8.726;2023-04-30T00:11:12;10.60;99.90
2226;DHT22;1119;48.288;8.726;2023-04-30T00:13:59;10.70;99.90
2226;DHT22;1119;48.288;8.726;2023-04-30T00:16:48;10.70;99.90
2226;DHT22;1119;48.288;8.726;2023-04-30T00:19:36;10.70;99.90
2226;DHT22;1119;48.288;8.726;2023-04-30T00:22:23;10.60;99.90
2226;DHT22;1119;48.288;8.726;2023-04-30T00:25:11;10.60;99.90
2226;DHT22;1119;48.288;8.726;2023-04-30T00:27:58;10.60;99.90
2226;DHT22;1119;48.288;8.726;2023-04-30T00:30:46;10.50;99.90
2226;DHT22;1119;48.288;8.726;2023-04-30T00:33:35;10.60;99.90
2226;DHT22;1119;48.288;8.726;2023-04-30T00:36:23;10.60;99.90
2226;DHT22;1119;48.288;8.726;2023-04-30T00:39:10;10.60;99.90
2226;DHT22;1119;48.288;8.726;2023-04-30T00:41:58;10.50;99.90
2226;DHT22;1119;48.288;8.726;2023-04-30T00:44:46;10.40;99.90
2226;DHT22;1119;48.288;8.726;2023-04-30T00:47:33;10.40;99.90
2226;DHT22;1119;48.288;8.726;2023-04-30T00:50:23;10.30;99.90
2226;DHT22;1119;48.288;8.726;2023-04-30T00:53:11;10.30;99.90
2226;DHT22;1119;48.288;8.726;2023-04-30T00:55:59;10.30;99.90
2226;DHT22;1119;48.288;8.726;2023-04-30T00:58:48;10.30;99.90
2226;DHT22;1119;48.288;8.726;2023-04-30T01:01:40;10.30;99.90
2226;DHT22;1119;48.288;8.726;2023-04-30T01:04:28;10.30;99.90
2226;DHT22;1119;48.288;8.726;2023-04-30T01:07:17;10.30;99.90
2226;DHT22;1119;48.288;8.726;2023-04-30T01:10:06;10.30;99.90
2226;DHT22;1119;48.288;8.726;2023-04-30T01:13:00;10.30;99.90
2226;DHT22;1119;48.288;8.726;2023-04-30T01:15:58;10.20;99.90
2226;DHT22;1119;48.288;8.726;2023-04-30T01:18:51;10.20;99.90
2226;DHT22;1119;48.288;8.726;2023-04-30T01:21:42;10.20;99.90
2226;DHT22;1119;48.288;8.726;2023-04-30T01:24:45;10.10;99.90
2226;DHT22;1119;48.288;8.726;2023-04-30T01:28:07;10.20;99.90
2226;DHT22;1119;48.288;8.726;2023-04-30T01:30:55;10.10;99.90
2226;DHT22;1119;48.288;8.726;2023-04-30T01:33:43;10.10;99.90
2226;DHT22;1119;48.288;8.726;2023-04-30T01:36:49;10.00;99.90
2226;DHT22;1119;48.288;8.726;2023-04-30T01:40:02;10.00;99.90
2226;DHT22;1119;48.288;8.726;2023-04-30T01:43:04;9.90;99.90
2226;DHT22;1119;48.288;8.726;2023-04-30T01:46:05;9.80;99.90
2226;DHT22;1119;48.288;8.726;2023-04-30T01:49:06;9.80;99.90
2226;DHT22;1119;48.288;8.726;2023-04-30T01:52:08;9.80;99.90
2226;DHT22;1119;48.288;8.726;2023-04-30T01:55:04;9.80;99.90
2226;DHT22;1119;48.288;8.726;2023-04-30T01:57:57;9.70;99.90
2226;DHT22;1119;48.288;8.726;2023-04-30T02:00:48;9.70;99.90
2226;DHT22;1119;48.288;8.726;2023-04-30T02:03:35;9.70;99.90
2226;DHT22;1119;48.288;8.726;2023-04-30T02:06:23;9.70;99.90
2226;DHT22;1119;48.288;8.726;2023-04-30T02:09:13;9.60;99.90
2226;DHT22;1119;48.288;8.726;2023-04-30T02:12:00;9.60;99.90
2226;DHT22;1119;48.288;8.726;2023-04-30T02:14:50;9.60;99.90
2226;DHT22;1119;48.288;8.726;2023-04-30T02:17:38;9.50;99.90
2226;DHT22;1119;48.288;8.726;2023-04-30T02:20:27;9.50;99.90
2226;DHT22;1119;48.288;8.726;2023-04-30T02:23:15;9.50;99.90
2226;DHT22;1119;48.288;8.726;2023-04-30T02:26:02;9.40;99.90
2226;DHT22;1119;48.288;8.726;2023-04-30T02:28:50;9.40;99.90
2226;DHT22;1119;48.288;8.726;2023-04-30T02:31:38;9.40;99.90
2226;DHT22;1119;48.288;8.726;2023-04-30T02:34:31;9.40;99.90
2226;DHT22;1119;48.288;8.726;2023-04-30T02:37:19;9.40;99.90
2226;DHT22;1119;48.288;8.726;2023-04-30T02:40:07;9.40;99.90
2226;DHT22;1119;48.288;8.726;2023-04-30T02:42:55;9.30;99.90
2226;DHT22;1119;48.288;8.726;2023-04-30T02:45:44;9.30;99.90
2226;DHT22;1119;48.288;8.726;2023-04-30T02:48:31;9.30;99.90
2226;DHT22;1119;48.288;8.726;2023-04-30T02:51:20;9.30;99.90
2226;DHT22;1119;48.288;8.726;2023-04-30T02:54:08;9.30;99.90
2226;DHT22;1119;48.288;8.726;2023-04-30T02:56:57;9.30;99.90
2226;DHT22;1119;48.288;8.726;2023-04-30T02:59:44;9.30;99.90
2226;DHT22;1119;48.288;8.726;2023-04-30T03:02:32;9.20;99.90
2226;DHT22;1119;48.288;8.726;2023-04-30T03:05:22;9.20;99.90
2226;DHT22;1119;48.288;8.726;2023-04-30T03:08:11;9.10;99.90
2226;DHT22;1119;48.288;8.726;2023-04-30T03:10:59;9.10;99.90
2226;DHT22;1119;48.288;8.726;2023-04-30T03:13:47;9.00;99.90
2226;DHT22;1119;48.288;8.726;2023-04-30T03:16:36;9.00;99.90
2226;DHT22;1119;48.288;8.726;2023-04-30T03:19:24;8.90;99.90
2226;DHT22;1119;48.288;8.726;2023-04-30T03:22:11;8.90;99.90
2226;DHT22;1119;48.288;8.726;2023-04-30T03:25:00;8.90;99.90
2226;DHT22;1119;48.288;8.726;2023-04-30T03:27:48;8.90;99.90
2226;DHT22;1119;48.288;8.726;2023-04-30T03:30:36;8.80;99.90
2226;DHT22;1119;48.288;8.726;2023-04-30T03:33:24;8.80;99.90
2226;DHT22;1119;48.288;8.726;2023-04-30T03:36:12;8.80;99.90
2226;DHT22;1119;48.288;8.726;2023-04-30T03:39:00;8.70;99.90
2226;DHT22;1119;48.288;8.726;2023-04-30T03:41:49;8.80;99.90
2226;DHT22;1119;48.288;8.726;2023-04-30T03:44:37;8.70;99.90
2226;DHT22;1119;48.288;8.726;2023-04-30T03:47:25;8.70;99.90
2226;DHT22;1119;48.288;8.726;2023-04-30T03:50:13;8.70;99.90
2226;DHT22;1119;48.288;8.726;2023-04-30T03:53:01;8.70;99.90
2226;DHT22;1119;48.288;8.726;2023-04-30T03:55:48;8.60;99.90
2226;DHT22;1119;48.288;8.726;2023-04-30T03:58:37;8.60;99.90
2226;DHT22;1119;48.288;8.726;2023-04-30T04:01:25;8.60;99.90
2226;DHT22;1119;48.288;8.726;2023-04-30T04:04:13;8.60;99.90
2226;DHT22;1119;48.288;8.726;2023-04-30T04:07:01;8.60;99.90
2226;DHT22;1119;48.288;8.726;2023-04-30T04:09:48;8.60;99.90
2226;DHT22;1119;48.288;8.726;2023-04-30T04:12:36;8.50;99.90
2226;DHT22;1119;48.288;8.726;2023-04-30T04:15:25;8.60;99.90
2226;DHT22;1119;48.288;8.726;2023-04-30T04:18:13;8.60;99.90
2226;DHT22;1119;48.288;8.726;2023-04-30T04:21:00;8.60;99.90
2226;DHT22;1119;48.288;8.726;2023-04-30T04:23:50;8.60;99.90
2226;DHT22;1119;48.288;8.726;2023-04-30T04:26:38;8.60;99.90
2226;DHT22;1119;48.288;8.726;2023-04-30T04:29:27;8.70;99.90
2226;DHT22;1119;48.288;8.726;2023-04-30T04:32:16;8.60;99.90
2226;DHT22;1119;48.288;8.726;2023-04-30T04:35:04;8.70;99.90
2226;DHT22;1119;48.288;8.726;2023-04-30T04:37:52;8.70;99.90
2226;DHT22;1119;48.288;8.726;2023-04-30T04:40:40;8.60;99.90
2226;DHT22;1119;48.288;8.726;2023-04-30T04:43:28;8.60;99.90
2226;DHT22;1119;48.288;8.726;2023-04-30T04:46:16;8.60;99.90
2226;DHT22;1119;48.288;8.726;2023-04-30T04:49:05;8.60;99.90
2226;DHT22;1119;48.288;8.726;2023-04-30T04:51:53;8.60;99.90
2226;DHT22;1119;48.288;8.726;2023-04-30T04:54:40;8.60;99.90
2226;DHT22;1119;48.288;8.726;2023-04-30T04:57:28;8.60;99.90
2226;DHT22;1119;48.288;8.726;2023-04-30T05:00:16;8.60;99.90
2226;DHT22;1119;48.288;8.726;2023-04-30T05:03:04;8.60;99.90
2226;DHT22;1119;48.288;8.726;2023-04-30T05:05:53;8.70;99.90
2226;DHT22;1119;48.288;8.726;2023-04-30T05:08:41;8.60;99.90
2226;DHT22;1119;48.288;8.726;2023-04-30T05:11:29;8.70;99.90
2226;DHT22;1119;48.288;8.726;2023-04-30T05:14:16;8.70;99.90
2226;DHT22;1119;48.288;8.726;2023-04-30T05:17:06;8.80;99.90
2226;DHT22;1119;48.288;8.726;2023-04-30T05:19:53;8.70;99.90
2226;DHT22;1119;48.288;8.726;2023-04-30T05:22:42;8.80;99.90
2226;DHT22;1119;48.288;8.726;2023-04-30T05:25:30;8.80;99.90
2226;DHT22;1119;48.288;8.726;2023-04-30T05:28:18;8.80;99.90
2226;DHT22;1119;48.288;8.726;2023-04-30T05:31:05;8.80;99.90
2226;DHT22;1119;48.288;8.726;2023-04-30T05:33:53;8.80;99.90
2226;DHT22;1119;48.288;8.726;2023-04-30T05:36:41;8.90;99.90
2226;DHT22;1119;48.288;8.726;2023-04-30T05:39:30;8.90;99.90
2226;DHT22;1119;48.288;8.726;2023-04-30T05:42:18;8.90;99.90
2226;DHT22;1119;48.288;8.726;2023-04-30T05:45:06;9.00;99.90
2226;DHT22;1119;48.288;8.726;2023-04-30T05:47:54;9.00;99.90
2226;DHT22;1119;48.288;8.726;2023-04-30T05:50:42;9.10;99.90
2226;DHT22;1119;48.288;8.726;2023-04-30T05:53:29;9.20;99.90
2226;DHT22;1119;48.288;8.726;2023-04-30T05:56:18;9.20;99.90
2226;DHT22;1119;48.288;8.726;2023-04-30T05:59:06;9.30;99.90
2226;DHT22;1119;48.288;8.726;2023-04-30T06:01:54;9.40;99.90
2226;DHT22;1119;48.288;8.726;2023-04-30T06:04:41;9.40;99.90
2226;DHT22;1119;48.288;8.726;2023-04-30T06:07:29;9.50;99.90
2226;DHT22;1119;48.288;8.726;2023-04-30T06:10:17;9.60;99.90
2226;DHT22;1119;48.288;8.726;2023-04-30T06:13:06;9.60;99.90
2226;DHT22;1119;48.288;8.726;2023-04-30T06:15:54;9.60;99.90
2226;DHT22;1119;48.288;8.726;2023-04-30T06:18:41;9.70;99.90
2226;DHT22;1119;48.288;8.726;2023-04-30T06:21:29;9.80;99.90
2226;DHT22;1119;48.288;8.726;2023-04-30T06:24:17;9.80;99.90
2226;DHT22;1119;48.288;8.726;2023-04-30T06:27:04;9.80;99.90
2226;DHT22;1119;48.288;8.726;2023-04-30T06:29:53;9.90;99.90
2226;DHT22;1119;48.288;8.726;2023-04-30T06:32:41;9.90;99.90
2226;DHT22;1119;48.288;8.726;2023-04-30T06:35:28;9.90;99.90
2226;DHT22;1119;48.288;8.726;2023-04-30T06:38:16;10.00;99.90
2226;DHT22;1119;48.288;8.726;2023-04-30T06:41:04;10.10;99.90
2226;DHT22;1119;48.288;8.726;2023-04-30T06:43:52;10.20;99.90
2226;DHT22;1119;48.288;8.726;2023-04-30T06:46:41;10.20;99.90
2226;DHT22;1119;48.288;8.726;2023-04-30T06:49:28;10.40;99.90
2226;DHT22;1119;48.288;8.726;2023-04-30T06:52:16;10.50;99.90
2226;DHT22;1119;48.288;8.726;2023-04-30T06:55:04;10.60;99.90
2226;DHT22;1119;48.288;8.726;2023-04-30T06:57:52;10.70;99.90
2226;DHT22;1119;48.288;8.726;2023-04-30T07:00:42;10.80;99.90
2226;DHT22;1119;48.288;8.726;2023-04-30T07:03:32;10.90;99.90
2226;DHT22;1119;48.288;8.726;2023-04-30T07:06:20;10.90;99.90
2226;DHT22;1119;48.288;8.726;2023-04-30T07:09:08;10.90;99.90
2226;DHT22;1119;48.288;8.726;2023-04-30T07:11:56;11.00;99.90
2226;DHT22;1119;48.288;8.726;2023-04-30T07:14:44;11.00;99.90
2226;DHT22;1119;48.288;8.726;2023-04-30T07:17:32;11.20;99.90
2226;DHT22;1119;48.288;8.726;2023-04-30T07:20:21;11.20;99.90
2226;DHT22;1119;48.288;8.726;2023-04-30T07:23:09;11.30;99.90
2226;DHT22;1119;48.288;8.726;2023-04-30T07:25:56;11.30;99.90
2226;DHT22;1119;48.288;8.726;2023-04-30T07:28:46;11.30;99.90
2226;DHT22;1119;48.288;8.726;2023-04-30T07:31:34;11.40;99.90
2226;DHT22;1119;48.288;8.726;2023-04-30T07:34:22;11.40;99.90
2226;DHT22;1119;48.288;8.726;2023-04-30T07:37:13;11.50;99.90
2226;DHT22;1119;48.288;8.726;2023-04-30T07:40:04;11.40;99.90
2226;DHT22;1119;48.288;8.726;2023-04-30T07:42:52;11.50;99.90
2226;DHT22;1119;48.288;8.726;2023-04-30T07:45:40;11.50;99.90
2226;DHT22;1119;48.288;8.726;2023-04-30T07:48:28;11.60;99.90
2226;DHT22;1119;48.288;8.726;2023-04-30T07:51:16;11.60;99.90
2226;DHT22;1119;48.288;8.726;2023-04-30T07:54:05;11.60;99.90
2226;DHT22;1119;48.288;8.726;2023-04-30T07:56:52;11.50;99.90
2226;DHT22;1119;48.288;8.726;2023-04-30T07:59:40;11.40;99.90
2226;DHT22;1119;48.288;8.726;2023-04-30T08:02:27;11.50;99.90
2226;DHT22;1119;48.288;8.726;2023-04-30T08:05:15;11.50;99.90
2226;DHT22;1119;48.288;8.726;2023-04-30T08:08:03;11.50;99.90
2226;DHT22;1119;48.288;8.726;2023-04-30T08:10:52;11.50;99.90
2226;DHT22;1119;48.288;8.726;2023-04-30T08:13:40;11.50;99.90
2226;DHT22;1119;48.288;8.726;2023-04-30T08:16:28;11.60;99.90
2226;DHT22;1119;48.288;8.726;2023-04-30T08:19:15;11.80;99.90
2226;DHT22;1119;48.288;8.726;2023-04-30T08:22:03;11.90;99.90
2226;DHT22;1119;48.288;8.726;2023-04-30T08:24:50;12.10;99.90
2226;DHT22;1119;48.288;8.726;2023-04-30T08:27:41;12.00;99.90
2226;DHT22;1119;48.288;8.726;2023-04-30T08:30:29;12.10;99.90
2226;DHT22;1119;48.288;8.726;2023-04-30T08:33:16;12.20;99.90
2226;DHT22;1119;48.288;8.726;2023-04-30T08:36:04;12.30;99.90
2226;DHT22;1119;48.288;8.726;2023-04-30T08:38:52;12.40;99.90
2226;DHT22;1119;48.288;8.726;2023-04-30T08:41:43;12.40;99.90
2226;DHT22;1119;48.288;8.726;2023-04-30T08:44:36;12.40;99.90
2226;DHT22;1119;48.288;8.726;2023-04-30T08:47:28;12.40;99.90
2226;DHT22;1119;48.288;8.726;2023-04-30T08:50:16;12.40;99.90
2226;DHT22;1119;48.288;8.726;2023-04-30T08:53:04;12.30;99.90
2226;DHT22;1119;48.288;8.726;2023-04-30T08:55:54;12.40;99.90
2226;DHT22;1119;48.288;8.726;2023-04-30T08:58:42;12.50;99.90
2226;DHT22;1119;48.288;8.726;2023-04-30T09:01:31;12.50;99.90
2226;DHT22;1119;48.288;8.726;2023-04-30T09:04:18;12.50;99.90
2226;DHT22;1119;48.288;8.726;2023-04-30T09:07:28;12.50;99.90
2226;DHT22;1119;48.288;8.726;2023-04-30T09:10:19;12.70;99.90
2226;DHT22;1119;48.288;8.726;2023-04-30T11:37:11;14.60;87.70
2226;DHT22;1119;48.288;8.726;2023-04-30T11:40:02;14.90;89.10
2226;DHT22;1119;48.288;8.726;2023-04-30T11:42:50;15.10;87.30
2226;DHT22;1119;48.288;8.726;2023-04-30T11:45:38;15.10;85.00
2226;DHT22;1119;48.288;8.726;2023-04-30T11:48:30;15.20;86.80
2226;DHT22;1119;48.288;8.726;2023-04-30T11:51:19;15.30;88.80
2226;DHT22;1119;48.288;8.726;2023-04-30T11:54:13;15.20;89.90
2226;DHT22;1119;48.288;8.726;2023-04-30T11:57:02;15.30;90.10
2226;DHT22;1119;48.288;8.726;2023-04-30T11:59:50;15.50;88.10
2226;DHT22;1119;48.288;8.726;2023-04-30T12:02:38;15.30;87.50
2226;DHT22;1119;48.288;8.726;2023-04-30T12:05:26;15.30;85.90
2226;DHT22;1119;48.288;8.726;2023-04-30T12:08:14;15.20;86.60
2226;DHT22;1119;48.288;8.726;2023-04-30T12:11:04;15.30;84.40
2226;DHT22;1119;48.288;8.726;2023-04-30T12:13:54;15.40;83.90
2226;DHT22;1119;48.288;8.726;2023-04-30T12:16:44;15.30;83.30
2226;DHT22;1119;48.288;8.726;2023-04-30T12:19:34;15.30;82.50
2226;DHT22;1119;48.288;8.726;2023-04-30T12:22:22;15.40;83.80
2226;DHT22;1119;48.288;8.726;2023-04-30T12:25:13;15.60;82.50
2226;DHT22;1119;48.288;8.726;2023-04-30T12:28:04;15.80;82.30
2226;DHT22;1119;48.288;8.726;2023-04-30T12:30:52;15.70;80.40
2226;DHT22;1119;48.288;8.726;2023-04-30T12:33:40;15.60;82.20
2226;DHT22;1119;48.288;8.726;2023-04-30T12:36:29;15.60;84.30
2226;DHT22;1119;48.288;8.726;2023-04-30T12:39:32;15.70;81.90
2226;DHT22;1119;48.288;8.726;2023-04-30T12:42:20;15.60;80.90
2226;DHT22;1119;48.288;8.726;2023-04-30T12:45:10;15.60;82.30
2226;DHT22;1119;48.288;8.726;2023-04-30T12:47:58;15.60;80.30
2226;DHT22;1119;48.288;8.726;2023-04-30T12:50:53;15.50;82.30
2226;DHT22;1119;48.288;8.726;2023-04-30T12:53:44;15.60;80.70
2226;DHT22;1119;48.288;8.726;2023-04-30T12:56:35;15.60;81.30
2226;DHT22;1119;48.288;8.726;2023-04-30T12:59:23;15.70;78.40
2226;DHT22;1119;48.288;8.726;2023-04-30T13:02:13;15.50;79.30
2226;DHT22;1119;48.288;8.726;2023-04-30T13:05:00;15.50;80.00
2226;DHT22;1119;48.288;8.726;2023-04-30T13:07:51;15.60;82.00
2226;DHT22;1119;48.288;8.726;2023-04-30T13:10:49;15.60;80.90
2226;DHT22;1119;48.288;8.726;2023-04-30T13:13:36;15.30;78.60
2226;DHT22;1119;48.288;8.726;2023-04-30T13:16:25;15.20;83.00
2226;DHT22;1119;48.288;8.726;2023-04-30T13:19:13;15.20;79.10
2226;DHT22;1119;48.288;8.726;2023-04-30T13:22:01;15.30;80.70
2226;DHT22;1119;48.288;8.726;2023-04-30T13:24:48;15.30;81.30
2226;DHT22;1119;48.288;8.726;2023-04-30T13:27:38;15.40;78.50
2226;DHT22;1119;48.288;8.726;2023-04-30T13:30:25;15.40;77.00
2226;DHT22;1119;48.288;8.726;2023-04-30T13:33:13;15.50;78.20
2226;DHT22;1119;48.288;8.726;2023-04-30T13:36:01;15.60;79.30
2226;DHT22;1119;48.288;8.726;2023-04-30T13:38:49;15.60;79.00
2226;DHT22;1119;48.288;8.726;2023-04-30T13:41:37;15.70;77.70
2226;DHT22;1119;48.288;8.726;2023-04-30T13:44:26;15.80;79.90
2226;DHT22;1119;48.288;8.726;2023-04-30T13:47:14;15.80;79.40
2226;DHT22;1119;48.288;8.726;2023-04-30T13:50:02;15.70;79.40
2226;DHT22;1119;48.288;8.726;2023-04-30T13:52:50;15.60;80.20
2226;DHT22;1119;48.288;8.726;2023-04-30T13:55:38;15.60;78.30
2226;DHT22;1119;48.288;8.726;2023-04-30T13:58:26;15.60;78.30
2226;DHT22;1119;48.288;8.726;2023-04-30T14:01:16;15.60;78.20
2226;DHT22;1119;48.288;8.726;2023-04-30T14:04:03;15.70;77.60
2226;DHT22;1119;48.288;8.726;2023-04-30T14:06:51;16.00;80.60
2226;DHT22;1119;48.288;8.726;2023-04-30T14:09:41;16.20;79.80
2226;DHT22;1119;48.288;8.726;2023-04-30T14:12:29;16.20;78.90
2226;DHT22;1119;48.288;8.726;2023-04-30T14:15:17;16.10;78.40
2226;DHT22;1119;48.288;8.726;2023-04-30T14:18:07;16.30;77.10
2226;DHT22;1119;48.288;8.726;2023-04-30T14:20:54;16.30;77.30
2226;DHT22;1119;48.288;8.726;2023-04-30T14:23:42;16.20;78.20
2226;DHT22;1119;48.288;8.726;2023-04-30T14:26:31;16.10;76.80
2226;DHT22;1119;48.288;8.726;2023-04-30T14:29:19;16.10;78.10
2226;DHT22;1119;48.288;8.726;2023-04-30T14:32:07;16.30;78.60
2226;DHT22;1119;48.288;8.726;2023-04-30T14:34:57;16.40;76.70
2226;DHT22;1119;48.288;8.726;2023-04-30T14:37:44;16.50;75.30
2226;DHT22;1119;48.288;8.726;2023-04-30T14:40:32;16.40;76.40
2226;DHT22;1119;48.288;8.726;2023-04-30T14:43:20;16.20;76.20
2226;DHT22;1119;48.288;8.726;2023-04-30T14:46:08;16.30;77.00
2226;DHT22;1119;48.288;8.726;2023-04-30T14:48:56;16.30;73.10
2226;DHT22;1119;48.288;8.726;2023-04-30T14:51:46;16.30;73.80
2226;DHT22;1119;48.288;8.726;2023-04-30T14:54:34;16.40;73.40
2226;DHT22;1119;48.288;8.726;2023-04-30T14:57:22;16.20;76.00
2226;DHT22;1119;48.288;8.726;2023-04-30T15:00:11;15.90;76.70
2226;DHT22;1119;48.288;8.726;2023-04-30T15:03:00;15.80;78.80
2226;DHT22;1119;48.288;8.726;2023-04-30T15:05:48;15.60;78.70
2226;DHT22;1119;48.288;8.726;2023-04-30T15:08:38;15.60;79.30
2226;DHT22;1119;48.288;8.726;2023-04-30T15:11:26;15.60;78.40
2226;DHT22;1119;48.288;8.726;2023-04-30T15:14:14;15.50;77.50
2226;DHT22;1119;48.288;8.726;2023-04-30T15:17:02;15.60;77.60
2226;DHT22;1119;48.288;8.726;2023-04-30T15:19:50;15.50;79.20
2226;DHT22;1119;48.288;8.726;2023-04-30T15:22:59;15.30;79.30
2226;DHT22;1119;48.288;8.726;2023-04-30T15:25:49;15.20;78.70
2226;DHT22;1119;48.288;8.726;2023-04-30T15:28:36;15.10;80.40
2226;DHT22;1119;48.288;8.726;2023-04-30T15:31:24;15.00;80.30
2226;DHT22;1119;48.288;8.726;2023-04-30T15:34:12;14.90;81.50
2226;DHT22;1119;48.288;8.726;2023-04-30T15:37:00;14.80;80.80
2226;DHT22;1119;48.288;8.726;2023-04-30T15:39:48;14.80;82.50
2226;DHT22;1119;48.288;8.726;2023-04-30T15:42:38;14.80;82.10
2226;DHT22;1119;48.288;8.726;2023-04-30T15:45:26;14.60;81.90
2226;DHT22;1119;48.288;8.726;2023-04-30T15:48:14;14.60;82.90
2226;DHT22;1119;48.288;8.726;2023-04-30T15:51:02;14.60;82.60
2226;DHT22;1119;48.288;8.726;2023-04-30T15:53:49;14.60;81.70
2226;DHT22;1119;48.288;8.726;2023-04-30T15:56:37;14.60;82.80
2226;DHT22;1119;48.288;8.726;2023-04-30T15:59:26;14.60;82.90
2226;DHT22;1119;48.288;8.726;2023-04-30T16:02:14;14.50;83.00
2226;DHT22;1119;48.288;8.726;2023-04-30T16:05:02;14.50;82.20
2226;DHT22;1119;48.288;8.726;2023-04-30T16:07:51;14.40;83.40
2226;DHT22;1119;48.288;8.726;2023-04-30T16:10:39;14.50;82.70
2226;DHT22;1119;48.288;8.726;2023-04-30T16:13:28;14.50;82.10
2226;DHT22;1119;48.288;8.726;2023-04-30T16:16:17;14.40;82.30
2226;DHT22;1119;48.288;8.726;2023-04-30T16:19:05;14.40;82.60
2226;DHT22;1119;48.288;8.726;2023-04-30T16:21:54;14.40;82.70
2226;DHT22;1119;48.288;8.726;2023-04-30T16:24:43;14.40;83.10
2226;DHT22;1119;48.288;8.726;2023-04-30T16:27:31;14.40;83.40
2226;DHT22;1119;48.288;8.726;2023-04-30T16:30:19;14.40;82.50
2226;DHT22;1119;48.288;8.726;2023-04-30T16:33:08;14.40;84.60
2226;DHT22;1119;48.288;8.726;2023-04-30T16:35:56;14.30;83.20
2226;DHT22;1119;48.288;8.726;2023-04-30T16:38:44;14.30;82.50
2226;DHT22;1119;48.288;8.726;2023-04-30T16:41:32;14.20;82.70
2226;DHT22;1119;48.288;8.726;2023-04-30T16:44:21;14.30;83.10
2226;DHT22;1119;48.288;8.726;2023-04-30T16:47:09;14.20;83.20
2226;DHT22;1119;48.288;8.726;2023-04-30T16:49:58;14.20;83.60
2226;DHT22;1119;48.288;8.726;2023-04-30T16:52:46;14.20;83.60
2226;DHT22;1119;48.288;8.726;2023-04-30T16:55:33;14.20;83.70
2226;DHT22;1119;48.288;8.726;2023-04-30T16:58:21;14.20;84.10
2226;DHT22;1119;48.288;8.726;2023-04-30T17:01:09;14.20;84.60
2226;DHT22;1119;48.288;8.726;2023-04-30T17:03:57;14.20;85.50
2226;DHT22;1119;48.288;8.726;2023-04-30T17:06:46;14.20;84.30
2226;DHT22;1119;48.288;8.726;2023-04-30T17:09:34;14.10;83.40
2226;DHT22;1119;48.288;8.726;2023-04-30T17:12:23;14.10;83.90
2226;DHT22;1119;48.288;8.726;2023-04-30T17:15:11;14.20;84.70
2226;DHT22;1119;48.288;8.726;2023-04-30T17:18:00;14.20;84.90
2226;DHT22;1119;48.288;8.726;2023-04-30T17:20:47;14.10;84.10
2226;DHT22;1119;48.288;8.726;2023-04-30T17:23:36;14.00;84.50
2226;DHT22;1119;48.288;8.726;2023-04-30T17:26:25;13.90;84.90
2226;DHT22;1119;48.288;8.726;2023-04-30T17:29:13;13.90;84.90
2226;DHT22;1119;48.288;8.726;2023-04-30T17:32:01;13.80;85.10
2226;DHT22;1119;48.288;8.726;2023-04-30T17:34:49;13.80;84.80
2226;DHT22;1119;48.288;8.726;2023-04-30T17:37:37;13.70;86.50
2226;DHT22;1119;48.288;8.726;2023-04-30T17:40:26;13.70;85.60
2226;DHT22;1119;48.288;8.726;2023-04-30T17:43:14;13.70;86.30
2226;DHT22;1119;48.288;8.726;2023-04-30T17:46:01;13.70;85.90
2226;DHT22;1119;48.288;8.726;2023-04-30T17:48:49;13.60;86.00
2226;DHT22;1119;48.288;8.726;2023-04-30T17:51:36;13.60;85.90
2226;DHT22;1119;48.288;8.726;2023-04-30T17:54:24;13.60;85.60
2226;DHT22;1119;48.288;8.726;2023-04-30T17:57:13;13.60;86.60
2226;DHT22;1119;48.288;8.726;2023-04-30T18:02:59;13.50;86.10
2226;DHT22;1119;48.288;8.726;2023-04-30T18:05:47;13.50;86.70
2226;DHT22;1119;48.288;8.726;2023-04-30T18:08:35;13.50;87.10
2226;DHT22;1119;48.288;8.726;2023-04-30T18:11:23;13.50;87.30
2226;DHT22;1119;48.288;8.726;2023-04-30T18:14:12;13.50;87.00
2226;DHT22;1119;48.288;8.726;2023-04-30T18:17:00;13.50;87.50
2226;DHT22;1119;48.288;8.726;2023-04-30T18:19:47;13.40;87.00
2226;DHT22;1119;48.288;8.726;2023-04-30T18:22:36;13.40;87.50
2226;DHT22;1119;48.288;8.726;2023-04-30T18:25:28;13.40;87.40
2226;DHT22;1119;48.288;8.726;2023-04-30T18:28:16;13.40;87.20
2226;DHT22;1119;48.288;8.726;2023-04-30T18:31:05;13.40;87.30
2226;DHT22;1119;48.288;8.726;2023-04-30T18:33:53;13.40;87.70
2226;DHT22;1119;48.288;8.726;2023-04-30T18:36:41;13.40;87.80
2226;DHT22;1119;48.288;8.726;2023-04-30T18:39:29;13.40;87.70
2226;DHT22;1119;48.288;8.726;2023-04-30T18:42:17;13.50;87.70
2226;DHT22;1119;48.288;8.726;2023-04-30T18:45:06;13.50;87.50
2226;DHT22;1119;48.288;8.726;2023-04-30T18:47:57;13.50;87.90
2226;DHT22;1119;48.288;8.726;2023-04-30T18:50:45;13.50;87.90
2226;DHT22;1119;48.288;8.726;2023-04-30T18:53:34;13.40;88.30
2226;DHT22;1119;48.288;8.726;2023-04-30T18:56:22;13.50;88.60
2226;DHT22;1119;48.288;8.726;2023-04-30T18:59:10;13.40;88.60
2226;DHT22;1119;48.288;8.726;2023-04-30T19:01:57;13.50;88.70
2226;DHT22;1119;48.288;8.726;2023-04-30T19:04:47;13.50;88.60
2226;DHT22;1119;48.288;8.726;2023-04-30T19:07:35;13.40;88.50
2226;DHT22;1119;48.288;8.726;2023-04-30T19:10:23;13.40;88.90
2226;DHT22;1119;48.288;8.726;2023-04-30T19:13:10;13.40;88.90
2226;DHT22;1119;48.288;8.726;2023-04-30T19:16:00;13.40;89.50
2226;DHT22;1119;48.288;8.726;2023-04-30T19:18:49;13.40;89.00
2226;DHT22;1119;48.288;8.726;2023-04-30T19:21:38;13.40;88.80
2226;DHT22;1119;48.288;8.726;2023-04-30T19:24:26;13.40;89.00
2226;DHT22;1119;48.288;8.726;2023-04-30T19:27:13;13.30;89.20
2226;DHT22;1119;48.288;8.726;2023-04-30T19:30:01;13.30;89.20
2226;DHT22;1119;48.288;8.726;2023-04-30T19:32:49;13.30;89.50
2226;DHT22;1119;48.288;8.726;2023-04-30T19:35:37;13.40;89.30
2226;DHT22;1119;48.288;8.726;2023-04-30T19:38:26;13.40;89.60
2226;DHT22;1119;48.288;8.726;2023-04-30T19:41:14;13.40;89.90
2226;DHT22;1119;48.288;8.726;2023-04-30T19:44:02;13.40;89.60
2226;DHT22;1119;48.288;8.726;2023-04-30T19:46:49;13.40;89.80
2226;DHT22;1119;48.288;8.726;2023-04-30T19:49:37;13.40;89.70
2226;DHT22;1119;48.288;8.726;2023-04-30T19:52:25;13.40;89.70
2226;DHT22;1119;48.288;8.726;2023-04-30T19:55:14;13.40;89.70
2226;DHT22;1119;48.288;8.726;2023-04-30T19:58:02;13.40;89.60
2226;DHT22;1119;48.288;8.726;2023-04-30T20:00:50;13.40;89.90
2226;DHT22;1119;48.288;8.726;2023-04-30T20:03:40;13.40;90.20
2226;DHT22;1119;48.288;8.726;2023-04-30T20:06:28;13.20;90.40
2226;DHT22;1119;48.288;8.726;2023-04-30T20:09:16;13.10;90.50
2226;DHT22;1119;48.288;8.726;2023-04-30T20:12:05;13.10;90.50
2226;DHT22;1119;48.288;8.726;2023-04-30T20:14:53;13.00;90.20
2226;DHT22;1119;48.288;8.726;2023-04-30T20:17:41;13.10;90.50
2226;DHT22;1119;48.288;8.726;2023-04-30T20:20:28;13.00;90.20
2226;DHT22;1119;48.288;8.726;2023-04-30T20:23:16;12.90;90.20
2226;DHT22;1119;48.288;8.726;2023-04-30T20:26:05;12.90;90.20
2226;DHT22;1119;48.288;8.726;2023-04-30T20:28:55;13.00;90.00
2226;DHT22;1119;48.288;8.726;2023-04-30T20:31:42;13.10;89.90
2226;DHT22;1119;48.288;8.726;2023-04-30T20:34:31;13.10;89.60
2226;DHT22;1119;48.288;8.726;2023-04-30T20:37:18;13.20;89.40
2226;DHT22;1119;48.288;8.726;2023-04-30T20:40:07;13.20;89.40
2226;DHT22;1119;48.288;8.726;2023-04-30T20:42:55;13.20;88.80
2226;DHT22;1119;48.288;8.726;2023-04-30T20:45:44;13.30;89.00
2226;DHT22;1119;48.288;8.726;2023-04-30T20:48:32;13.30;88.40
2226;DHT22;1119;48.288;8.726;2023-04-30T20:51:21;13.40;88.30
2226;DHT22;1119;48.288;8.726;2023-04-30T20:54:09;13.40;88.30